createdAt,value
2016-04-14T00:00:55.892Z,0
2016-04-14T00:01:55.910Z,0
2016-04-14T00:02:55.928Z,0
2016-04-14T00:03:55.946Z,0
2016-04-14T00:04:56.371Z,0
2016-04-14T00:05:55.999Z,0
2016-04-14T00:06:56.017Z,0
2016-04-14T00:07:55.301Z,0
2016-04-14T00:08:56.239Z,0
2016-04-14T00:09:56.070Z,0
2016-04-14T00:10:56.104Z,0
2016-04-14T00:11:56.341Z,0
2016-04-14T00:12:56.141Z,0
2016-04-14T00:13:56.174Z,0
2016-04-14T00:14:56.193Z,0
2016-04-14T00:15:56.211Z,0
2016-04-14T00:16:56.229Z,0
2016-04-14T00:17:56.263Z,0
2016-04-14T00:18:56.282Z,0
2016-04-14T00:19:56.301Z,0
2016-04-14T00:20:56.318Z,0
2016-04-14T00:21:56.352Z,0
2016-04-14T00:22:56.371Z,0
2016-04-14T00:23:56.389Z,0
2016-04-14T00:24:56.423Z,0
2016-04-14T00:25:56.441Z,0
2016-04-14T00:26:56.460Z,0
2016-04-14T00:27:56.493Z,0
2016-04-14T00:28:56.527Z,0
2016-04-14T00:29:56.531Z,0
2016-04-14T00:30:56.548Z,0
2016-04-14T00:31:56.597Z,0
2016-04-14T00:32:56.601Z,0
2016-04-14T00:33:56.619Z,0
2016-04-14T00:34:56.637Z,0
2016-04-14T00:35:56.722Z,0
2016-04-14T00:36:56.712Z,0
2016-04-14T00:37:56.590Z,0
2016-04-14T00:38:56.733Z,0
2016-04-14T00:39:56.751Z,0
2016-04-14T00:40:56.785Z,0
2016-04-14T00:41:56.804Z,0
2016-04-14T00:42:56.821Z,0
2016-04-14T00:43:56.856Z,0
2016-04-14T00:44:56.859Z,0
2016-04-14T00:45:56.877Z,0
2016-04-14T00:46:56.912Z,0
2016-04-14T00:47:58.351Z,0
2016-04-14T00:48:56.948Z,0
2016-04-14T00:49:56.966Z,0
2016-04-14T00:50:57.000Z,0
2016-04-14T00:51:57.017Z,0
2016-04-14T00:52:57.037Z,0
2016-04-14T00:53:57.055Z,0
2016-04-14T00:54:57.104Z,0
2016-04-14T00:55:57.106Z,0
2016-04-14T00:56:57.125Z,0
2016-04-14T00:57:57.144Z,0
2016-04-14T00:58:57.161Z,0
2016-04-14T00:59:57.196Z,0
2016-04-14T01:00:57.214Z,0
2016-04-14T01:01:57.232Z,0
2016-04-14T01:02:57.266Z,0
2016-04-14T01:03:57.300Z,0
2016-04-14T01:04:57.302Z,0
2016-04-14T01:05:57.322Z,0
2016-04-14T01:06:57.371Z,0
2016-04-14T01:07:57.374Z,0
2016-04-14T01:08:57.391Z,0
2016-04-14T01:09:57.410Z,0
2016-04-14T01:10:57.429Z,0
2016-04-14T01:11:57.478Z,0
2016-04-14T01:12:57.684Z,0
2016-04-14T01:13:57.499Z,0
2016-04-14T01:14:56.626Z,0
2016-04-14T01:15:57.551Z,0
2016-04-14T01:16:57.570Z,0
2016-04-14T01:17:57.447Z,0
2016-04-14T01:18:57.444Z,0
2016-04-14T01:19:57.634Z,0
2016-04-14T01:20:57.653Z,0
2016-04-14T01:21:57.671Z,0
2016-04-14T01:22:57.392Z,0
2016-04-14T01:23:57.739Z,0
2016-04-14T01:24:57.741Z,0
2016-04-14T01:25:57.775Z,0
2016-04-14T01:26:57.794Z,0
2016-04-14T01:27:57.812Z,0
2016-04-14T01:28:57.924Z,0
2016-04-14T01:29:57.849Z,0
2016-04-14T01:30:57.866Z,0
2016-04-14T01:31:57.902Z,0
2016-04-14T01:32:57.872Z,0
2016-04-14T01:33:57.954Z,0
2016-04-14T01:34:57.956Z,0
2016-04-14T01:35:57.974Z,0
2016-04-14T01:36:58.024Z,0
2016-04-14T01:37:58.042Z,0
2016-04-14T01:38:58.076Z,0
2016-04-14T01:39:58.079Z,0
2016-04-14T01:40:58.097Z,0
2016-04-14T01:41:58.115Z,0
2016-04-14T01:42:58.134Z,0
2016-04-14T01:43:58.168Z,0
2016-04-14T01:44:58.186Z,0
2016-04-14T01:45:58.204Z,0
2016-04-14T01:46:58.222Z,0
2016-04-14T01:47:58.241Z,0
2016-04-14T01:48:58.259Z,0
2016-04-14T01:49:58.309Z,0
2016-04-14T01:50:58.311Z,0
2016-04-14T01:51:58.330Z,0
2016-04-14T01:52:58.364Z,0
2016-04-14T01:53:58.397Z,0
2016-04-14T01:54:58.400Z,0
2016-04-14T01:55:58.418Z,0
2016-04-14T01:56:58.453Z,0
2016-04-14T01:57:58.471Z,0
2016-04-14T01:58:58.489Z,0
2016-04-14T01:59:58.711Z,0
2016-04-14T02:00:58.541Z,0
2016-04-14T02:01:58.560Z,0
2016-04-14T02:02:58.578Z,0
2016-04-14T02:03:58.596Z,0
2016-04-14T02:04:58.630Z,0
2016-04-14T02:05:58.648Z,0
2016-04-14T02:06:58.667Z,0
2016-04-14T02:07:58.685Z,0
2016-04-14T02:08:58.704Z,0
2016-04-14T02:09:58.737Z,0
2016-04-14T02:10:58.756Z,0
2016-04-14T02:11:58.773Z,0
2016-04-14T02:12:58.792Z,0
2016-04-14T02:13:58.826Z,0
2016-04-14T02:14:58.845Z,0
2016-04-14T02:15:58.863Z,0
2016-04-14T02:16:58.882Z,0
2016-04-14T02:17:58.900Z,0
2016-04-14T02:18:58.933Z,0
2016-04-14T02:19:58.953Z,0
2016-04-14T02:20:58.970Z,0
2016-04-14T02:21:59.004Z,0
2016-04-14T02:22:59.023Z,0
2016-04-14T02:23:59.041Z,0
2016-04-14T02:24:59.044Z,0
2016-04-14T02:25:59.077Z,0
2016-04-14T02:26:58.955Z,0
2016-04-14T02:27:58.973Z,0
2016-04-14T02:28:59.148Z,0
2016-04-14T02:29:59.166Z,0
2016-04-14T02:30:59.184Z,0
2016-04-14T02:31:59.235Z,0
2016-04-14T02:32:59.221Z,0
2016-04-14T02:33:59.255Z,0
2016-04-14T02:34:59.274Z,0
2016-04-14T02:35:59.291Z,0
2016-04-14T02:36:59.326Z,0
2016-04-14T02:37:59.344Z,0
2016-04-14T02:38:59.362Z,0
2016-04-14T02:39:59.396Z,0
2016-04-14T02:40:59.415Z,0
2016-04-14T02:41:59.417Z,0
2016-04-14T02:42:59.451Z,0
2016-04-14T02:43:59.470Z,0
2016-04-14T02:44:59.347Z,0
2016-04-14T02:45:59.522Z,0
2016-04-14T02:46:59.525Z,0
2016-04-14T02:47:59.558Z,0
2016-04-14T02:48:59.420Z,0
2016-04-14T02:49:59.611Z,0
2016-04-14T02:50:59.613Z,0
2016-04-14T02:51:59.648Z,0
2016-04-14T02:52:59.666Z,0
2016-04-14T02:53:59.684Z,0
2016-04-14T02:54:59.702Z,0
2016-04-14T02:55:59.736Z,0
2016-04-14T02:56:59.755Z,0
2016-04-14T02:57:59.772Z,0
2016-04-14T02:58:59.822Z,0
2016-04-14T02:59:59.841Z,0
2016-04-14T03:00:59.844Z,0
2016-04-14T03:01:59.111Z,0
2016-04-14T03:02:59.880Z,0
2016-04-14T03:03:59.913Z,0
2016-04-14T03:04:59.933Z,0
2016-04-14T03:05:59.951Z,0
2016-04-14T03:06:59.968Z,0
2016-04-14T03:07:59.988Z,0
2016-04-14T03:09:00.005Z,0
2016-04-14T03:10:00.024Z,0
2016-04-14T03:11:00.042Z,0
2016-04-14T03:12:00.076Z,0
2016-04-14T03:13:00.109Z,0
2016-04-14T03:14:00.113Z,0
2016-04-14T03:15:00.146Z,0
2016-04-14T03:16:00.164Z,0
2016-04-14T03:17:00.184Z,0
2016-04-14T03:18:00.201Z,0
2016-04-14T03:19:00.220Z,0
2016-04-14T03:20:00.254Z,0
2016-04-14T03:21:00.272Z,0
2016-04-14T03:22:00.275Z,0
2016-04-14T03:23:00.325Z,0
2016-04-14T03:24:00.030Z,0
2016-04-14T03:25:00.345Z,0
2016-04-14T03:26:00.380Z,0
2016-04-14T03:27:00.397Z,0
2016-04-14T03:28:00.417Z,0
2016-04-14T03:28:59.700Z,0
2016-04-14T03:30:00.469Z,0
2016-04-14T03:31:00.502Z,0
2016-04-14T03:32:00.505Z,0
2016-04-14T03:33:00.539Z,0
2016-04-14T03:34:00.557Z,0
2016-04-14T03:35:00.575Z,0
2016-04-14T03:36:00.593Z,0
2016-04-14T03:37:00.612Z,0
2016-04-14T03:38:00.630Z,0
2016-04-14T03:39:00.665Z,0
2016-04-14T03:40:00.682Z,0
2016-04-14T03:41:00.716Z,0
2016-04-14T03:42:00.719Z,0
2016-04-14T03:43:00.737Z,0
2016-04-14T03:44:00.756Z,0
2016-04-14T03:45:00.790Z,0
2016-04-14T03:46:00.808Z,0
2016-04-14T03:47:00.827Z,0
2016-04-14T03:48:00.860Z,0
2016-04-14T03:49:00.894Z,0
2016-04-14T03:50:00.898Z,0
2016-04-14T03:51:00.915Z,0
2016-04-14T03:52:00.934Z,0
2016-04-14T03:53:00.952Z,0
2016-04-14T03:54:00.986Z,0
2016-04-14T03:55:00.989Z,0
2016-04-14T03:56:01.023Z,0
2016-04-14T03:57:01.041Z,0
2016-04-14T03:58:01.058Z,0
2016-04-14T03:59:01.093Z,4
2016-04-14T04:00:01.096Z,4
2016-04-14T04:01:01.130Z,4
2016-04-14T04:02:01.147Z,0
2016-04-14T04:03:01.166Z,4
2016-04-14T04:04:01.044Z,4
2016-04-14T04:05:01.218Z,4
2016-04-14T04:06:01.237Z,4
2016-04-14T04:07:01.271Z,4
2016-04-14T04:08:01.273Z,8
2016-04-14T04:09:01.308Z,8
2016-04-14T04:10:01.154Z,8
2016-04-14T04:11:01.359Z,8
2016-04-14T04:12:01.363Z,12
2016-04-14T04:13:01.381Z,8
2016-04-14T04:14:01.415Z,12
2016-04-14T04:15:01.418Z,12
2016-04-14T04:16:01.451Z,16
2016-04-14T04:17:01.485Z,16
2016-04-14T04:18:01.488Z,16
2016-04-14T04:19:01.506Z,24
2016-04-14T04:20:01.540Z,24
2016-04-14T04:21:01.559Z,24
2016-04-14T04:22:01.577Z,28
2016-04-14T04:23:01.595Z,28
2016-04-14T04:24:01.614Z,32
2016-04-14T04:25:01.631Z,32
2016-04-14T04:26:01.681Z,36
2016-04-14T04:27:01.684Z,40
2016-04-14T04:28:01.703Z,40
2016-04-14T04:29:01.720Z,40
2016-04-14T04:30:01.738Z,48
2016-04-14T04:31:01.617Z,48
2016-04-14T04:32:01.791Z,52
2016-04-14T04:33:01.810Z,56
2016-04-14T04:34:01.813Z,56
2016-04-14T04:35:01.861Z,60
2016-04-14T04:36:01.864Z,64
2016-04-14T04:37:01.899Z,72
2016-04-14T04:38:01.916Z,72
2016-04-14T04:39:01.935Z,76
2016-04-14T04:40:01.953Z,80
2016-04-14T04:41:01.924Z,84
2016-04-14T04:42:01.990Z,88
2016-04-14T04:43:02.024Z,92
2016-04-14T04:44:02.057Z,96
2016-04-14T04:45:02.060Z,104
2016-04-14T04:46:02.079Z,108
2016-04-14T04:47:02.097Z,112
2016-04-14T04:48:02.131Z,116
2016-04-14T04:49:02.149Z,124
2016-04-14T04:50:02.167Z,128
2016-04-14T04:51:02.186Z,132
2016-04-14T04:52:02.204Z,136
2016-04-14T04:53:02.223Z,136
2016-04-14T04:54:02.241Z,132
2016-04-14T04:55:02.290Z,120
2016-04-14T04:56:02.106Z,144
2016-04-14T04:57:02.311Z,160
2016-04-14T04:58:02.345Z,172
2016-04-14T04:59:02.363Z,172
2016-04-14T05:00:02.382Z,176
2016-04-14T05:01:02.401Z,180
2016-04-14T05:02:02.434Z,176
2016-04-14T05:03:02.452Z,176
2016-04-14T05:04:02.456Z,176
2016-04-14T05:05:02.489Z,176
2016-04-14T05:06:02.524Z,180
2016-04-14T05:07:02.541Z,192
2016-04-14T05:08:02.544Z,200
2016-04-14T05:09:02.562Z,208
2016-04-14T05:10:02.581Z,200
2016-04-14T05:11:02.693Z,188
2016-04-14T05:12:02.633Z,188
2016-04-14T05:13:02.666Z,192
2016-04-14T05:14:02.729Z,196
2016-04-14T05:15:02.791Z,212
2016-04-14T05:16:02.869Z,232
2016-04-14T05:17:02.933Z,232
2016-04-14T05:18:02.986Z,220
2016-04-14T05:19:03.021Z,244
2016-04-14T05:20:03.055Z,264
2016-04-14T05:21:03.090Z,272
2016-04-14T05:22:03.140Z,268
2016-04-14T05:23:03.171Z,244
2016-04-14T05:24:03.195Z,256
2016-04-14T05:25:03.219Z,276
2016-04-14T05:26:03.477Z,284
2016-04-14T05:27:03.283Z,244
2016-04-14T05:28:03.291Z,248
2016-04-14T05:29:03.327Z,268
2016-04-14T05:30:03.346Z,300
2016-04-14T05:31:03.384Z,284
2016-04-14T05:32:04.076Z,280
2016-04-14T05:33:03.424Z,312
2016-04-14T05:34:03.443Z,344
2016-04-14T05:35:03.462Z,368
2016-04-14T05:36:03.482Z,376
2016-04-14T05:37:03.500Z,372
2016-04-14T05:38:03.722Z,404
2016-04-14T05:39:03.538Z,448
2016-04-14T05:40:03.556Z,448
2016-04-14T05:41:03.652Z,448
2016-04-14T05:42:03.624Z,456
2016-04-14T05:43:03.845Z,496
2016-04-14T05:44:03.644Z,516
2016-04-14T05:45:03.663Z,528
2016-04-14T05:46:03.697Z,532
2016-04-14T05:47:03.716Z,560
2016-04-14T05:48:03.734Z,508
2016-04-14T05:49:03.752Z,464
2016-04-14T05:50:03.786Z,476
2016-04-14T05:51:03.804Z,448
2016-04-14T05:52:03.823Z,456
2016-04-14T05:53:03.826Z,528
2016-04-14T05:54:03.859Z,496
2016-04-14T05:55:03.878Z,560
2016-04-14T05:56:04.083Z,728
2016-04-14T05:57:03.914Z,800
2016-04-14T05:58:03.948Z,848
2016-04-14T05:59:03.967Z,884
2016-04-14T06:00:04.001Z,880
2016-04-14T06:01:04.003Z,764
2016-04-14T06:02:04.022Z,504
2016-04-14T06:03:04.040Z,632
2016-04-14T06:04:04.058Z,852
2016-04-14T06:05:04.092Z,788
2016-04-14T06:06:04.125Z,628
2016-04-14T06:07:04.128Z,600
2016-04-14T06:08:04.162Z,532
2016-04-14T06:09:04.180Z,596
2016-04-14T06:10:04.199Z,600
2016-04-14T06:11:04.232Z,636
2016-04-14T06:12:04.251Z,712
2016-04-14T06:13:04.254Z,804
2016-04-14T06:14:04.287Z,652
2016-04-14T06:15:04.306Z,544
2016-04-14T06:16:04.324Z,480
2016-04-14T06:17:04.343Z,552
2016-04-14T06:18:04.360Z,592
2016-04-14T06:19:04.396Z,468
2016-04-14T06:20:04.413Z,416
2016-04-14T06:21:04.432Z,348
2016-04-14T06:22:04.450Z,296
2016-04-14T06:23:04.484Z,252
2016-04-14T06:24:04.487Z,244
2016-04-14T06:25:04.505Z,216
2016-04-14T06:26:04.540Z,208
2016-04-14T06:27:04.557Z,208
2016-04-14T06:28:04.576Z,252
2016-04-14T06:29:04.610Z,376
2016-04-14T06:30:04.628Z,460
2016-04-14T06:31:04.490Z,572
2016-04-14T06:32:04.648Z,528
2016-04-14T06:33:04.683Z,468
2016-04-14T06:34:04.700Z,484
2016-04-14T06:35:04.766Z,524
2016-04-14T06:36:04.753Z,512
2016-04-14T06:37:04.771Z,576
2016-04-14T06:38:04.805Z,584
2016-04-14T06:39:04.824Z,568
2016-04-14T06:40:04.827Z,600
2016-04-14T06:41:04.861Z,576
2016-04-14T06:42:04.738Z,440
2016-04-14T06:43:04.897Z,508
2016-04-14T06:44:04.915Z,564
2016-04-14T06:45:04.933Z,532
2016-04-14T06:46:05.124Z,508
2016-04-14T06:47:04.971Z,416
2016-04-14T06:48:05.004Z,436
2016-04-14T06:49:05.023Z,388
2016-04-14T06:50:05.040Z,460
2016-04-14T06:51:05.059Z,536
2016-04-14T06:52:05.093Z,568
2016-04-14T06:53:05.127Z,504
2016-04-14T06:54:05.130Z,540
2016-04-14T06:55:05.164Z,500
2016-04-14T06:56:05.198Z,684
2016-04-14T06:57:05.201Z,868
2016-04-14T06:58:05.203Z,968
2016-04-14T06:59:05.254Z,964
2016-04-14T07:00:05.271Z,820
2016-04-14T07:01:05.290Z,612
2016-04-14T07:02:05.309Z,564
2016-04-14T07:03:05.311Z,700
2016-04-14T07:04:05.330Z,756
2016-04-14T07:05:05.363Z,1016
2016-04-14T07:06:05.413Z,996
2016-04-14T07:07:05.411Z,1072
2016-04-14T07:08:05.429Z,796
2016-04-14T07:09:05.442Z,720
2016-04-14T07:10:05.444Z,888
2016-04-14T07:11:05.362Z,860
2016-04-14T07:12:05.504Z,976
2016-04-14T07:13:05.521Z,948
2016-04-14T07:14:05.391Z,1428
2016-04-14T07:15:05.581Z,1420
2016-04-14T07:16:05.818Z,1624
2016-04-14T07:17:06.179Z,1364
2016-04-14T07:18:05.679Z,1072
2016-04-14T07:19:05.541Z,1072
2016-04-14T07:20:05.700Z,1020
2016-04-14T07:21:05.718Z,1444
2016-04-14T07:22:05.737Z,1368
2016-04-14T07:23:05.739Z,1196
2016-04-14T07:24:05.773Z,1408
2016-04-14T07:25:05.791Z,1016
2016-04-14T07:26:05.809Z,812
2016-04-14T07:27:05.781Z,664
2016-04-14T07:28:05.845Z,700
2016-04-14T07:29:05.880Z,536
2016-04-14T07:30:05.898Z,488
2016-04-14T07:31:05.917Z,448
2016-04-14T07:32:05.934Z,396
2016-04-14T07:33:05.969Z,436
2016-04-14T07:34:05.972Z,468
2016-04-14T07:35:06.005Z,420
2016-04-14T07:36:06.024Z,360
2016-04-14T07:37:06.042Z,488
2016-04-14T07:38:06.076Z,604
2016-04-14T07:39:06.111Z,872
2016-04-14T07:40:06.114Z,980
2016-04-14T07:41:06.131Z,1020
2016-04-14T07:42:06.166Z,1156
2016-04-14T07:43:06.183Z,1152
2016-04-14T07:44:06.202Z,1208
2016-04-14T07:45:06.220Z,1300
2016-04-14T07:46:06.254Z,1380
2016-04-14T07:47:06.288Z,1476
2016-04-14T07:48:06.274Z,1172
2016-04-14T07:49:06.309Z,1076
2016-04-14T07:50:06.327Z,804
2016-04-14T07:51:06.376Z,772
2016-04-14T07:52:06.380Z,824
2016-04-14T07:53:06.398Z,868
2016-04-14T07:54:06.416Z,1120
2016-04-14T07:55:06.435Z,1396
2016-04-14T07:56:06.468Z,1420
2016-04-14T07:57:06.487Z,1416
2016-04-14T07:58:06.504Z,1404
2016-04-14T07:59:06.539Z,1276
2016-04-14T08:00:06.556Z,876
2016-04-14T08:01:06.419Z,1284
2016-04-14T08:02:06.609Z,1628
2016-04-14T08:03:06.612Z,1160
2016-04-14T08:04:06.631Z,976
2016-04-14T08:05:06.664Z,1404
2016-04-14T08:06:06.683Z,1472
2016-04-14T08:07:06.701Z,1628
2016-04-14T08:08:06.719Z,1996
2016-04-14T08:09:06.771Z,1792
2016-04-14T08:10:06.762Z,1764
2016-04-14T08:11:06.781Z,1648
2016-04-14T08:12:06.814Z,2000
2016-04-14T08:13:06.833Z,1404
2016-04-14T08:14:06.851Z,808
2016-04-14T08:15:06.869Z,836
2016-04-14T08:16:06.903Z,1064
2016-04-14T08:17:06.922Z,1160
2016-04-14T08:18:06.940Z,1508
2016-04-14T08:19:06.942Z,1012
2016-04-14T08:20:06.992Z,1236
2016-04-14T08:21:06.994Z,1968
2016-04-14T08:22:07.013Z,2344
2016-04-14T08:23:07.031Z,2112
2016-04-14T08:24:07.112Z,1664
2016-04-14T08:25:07.083Z,1392
2016-04-14T08:26:07.117Z,1300
2016-04-14T08:27:07.135Z,1380
2016-04-14T08:28:07.154Z,1436
2016-04-14T08:29:07.172Z,1740
2016-04-14T08:30:07.207Z,2080
2016-04-14T08:31:07.209Z,2336
2016-04-14T08:32:07.243Z,2012
2016-04-14T08:33:07.418Z,1528
2016-04-14T08:34:07.295Z,1544
2016-04-14T08:35:07.313Z,1856
2016-04-14T08:36:07.331Z,1732
2016-04-14T08:37:07.358Z,1636
2016-04-14T08:38:07.376Z,2196
2016-04-14T08:39:07.395Z,2092
2016-04-14T08:40:07.429Z,2296
2016-04-14T08:41:07.462Z,2148
2016-04-14T08:42:07.497Z,1748
2016-04-14T08:43:07.515Z,1992
2016-04-14T08:44:07.502Z,2088
2016-04-14T08:45:07.536Z,2320
2016-04-14T08:46:07.538Z,1836
2016-04-14T08:47:07.572Z,1456
2016-04-14T08:48:07.606Z,1608
2016-04-14T08:49:07.624Z,1768
2016-04-14T08:50:07.643Z,1764
2016-04-14T08:51:07.676Z,1836
2016-04-14T08:52:07.694Z,1988
2016-04-14T08:53:07.713Z,2184
2016-04-14T08:54:07.732Z,2296
2016-04-14T08:55:07.750Z,2576
2016-04-14T08:56:07.784Z,2592
2016-04-14T08:57:07.787Z,2264
2016-04-14T08:58:07.835Z,1772
2016-04-14T08:59:07.854Z,1296
2016-04-14T09:00:07.873Z,680
2016-04-14T09:01:07.891Z,476
2016-04-14T09:02:07.754Z,484
2016-04-14T09:03:07.929Z,448
2016-04-14T09:04:07.962Z,316
2016-04-14T09:05:07.980Z,196
2016-04-14T09:06:07.999Z,244
2016-04-14T09:07:08.032Z,296
2016-04-14T09:08:08.051Z,296
2016-04-14T09:09:08.084Z,320
2016-04-14T09:10:08.087Z,384
2016-04-14T09:11:08.105Z,532
2016-04-14T09:12:08.170Z,700
2016-04-14T09:13:08.173Z,824
2016-04-14T09:14:08.191Z,988
2016-04-14T09:15:08.242Z,1140
2016-04-14T09:16:08.244Z,1284
2016-04-14T09:17:08.262Z,1416
2016-04-14T09:18:08.281Z,1516
2016-04-14T09:19:08.299Z,1500
2016-04-14T09:20:08.333Z,1504
2016-04-14T09:21:08.554Z,1652
2016-04-14T09:22:08.354Z,2052
2016-04-14T09:23:08.434Z,2464
2016-04-14T09:24:08.405Z,2568
2016-04-14T09:25:08.299Z,2556
2016-04-14T09:26:08.474Z,2664
2016-04-14T09:27:08.492Z,2936
2016-04-14T09:28:08.511Z,3168
2016-04-14T09:29:08.513Z,3196
2016-04-14T09:30:08.391Z,2852
2016-04-14T09:31:08.581Z,2632
2016-04-14T09:32:08.584Z,2448
2016-04-14T09:33:08.634Z,2448
2016-04-14T09:34:08.636Z,2740
2016-04-14T09:35:08.670Z,3028
2016-04-14T09:36:08.688Z,3128
2016-04-14T09:37:08.723Z,3048
2016-04-14T09:38:08.741Z,2836
2016-04-14T09:39:08.743Z,2576
2016-04-14T09:40:08.762Z,2252
2016-04-14T09:41:08.811Z,2012
2016-04-14T09:42:08.923Z,1704
2016-04-14T09:43:08.831Z,1544
2016-04-14T09:44:08.850Z,1312
2016-04-14T09:45:08.759Z,1284
2016-04-14T09:46:08.918Z,1328
2016-04-14T09:47:08.936Z,1524
2016-04-14T09:48:08.970Z,1768
2016-04-14T09:49:09.020Z,2428
2016-04-14T09:50:08.991Z,1812
2016-04-14T09:51:09.025Z,1984
2016-04-14T09:52:09.075Z,2176
2016-04-14T09:53:09.077Z,2672
2016-04-14T09:54:09.096Z,2188
2016-04-14T09:55:09.129Z,2320
2016-04-14T09:56:09.179Z,1972
2016-04-14T09:57:09.119Z,2368
2016-04-14T09:58:09.185Z,2608
2016-04-14T09:59:09.234Z,2812
2016-04-14T10:00:09.424Z,2672
2016-04-14T10:01:09.255Z,2112
2016-04-14T10:02:09.290Z,2756
2016-04-14T10:03:09.307Z,3376
2016-04-14T10:04:09.326Z,3016
2016-04-14T10:05:09.360Z,3296
2016-04-14T10:06:09.378Z,3408
2016-04-14T10:07:09.397Z,3588
2016-04-14T10:08:09.415Z,3260
2016-04-14T10:09:09.449Z,3216
2016-04-14T10:10:09.452Z,2824
2016-04-14T10:11:09.486Z,2452
2016-04-14T10:12:09.754Z,2140
2016-04-14T10:13:09.537Z,1748
2016-04-14T10:14:09.556Z,1940
2016-04-14T10:15:09.589Z,1668
2016-04-14T10:16:09.592Z,1488
2016-04-14T10:17:09.658Z,1668
2016-04-14T10:18:09.661Z,1628
2016-04-14T10:19:09.679Z,2168
2016-04-14T10:20:09.697Z,3244
2016-04-14T10:21:09.731Z,4176
2016-04-14T10:22:09.749Z,3932
2016-04-14T10:23:09.768Z,3532
2016-04-14T10:24:09.802Z,2596
2016-04-14T10:25:09.819Z,2132
2016-04-14T10:26:09.838Z,2024
2016-04-14T10:27:09.918Z,2116
2016-04-14T10:28:09.890Z,2408
2016-04-14T10:29:09.909Z,2520
2016-04-14T10:30:09.943Z,2540
2016-04-14T10:31:09.227Z,2288
2016-04-14T10:32:09.979Z,2192
2016-04-14T10:33:10.013Z,2620
2016-04-14T10:34:10.032Z,3300
2016-04-14T10:35:10.065Z,4060
2016-04-14T10:36:10.069Z,3720
2016-04-14T10:37:10.118Z,2840
2016-04-14T10:38:10.121Z,2628
2016-04-14T10:39:10.140Z,2492
2016-04-14T10:40:10.220Z,2708
2016-04-14T10:41:10.207Z,2676
2016-04-14T10:42:09.819Z,2332
2016-04-14T10:43:10.243Z,1952
2016-04-14T10:44:10.261Z,1716
2016-04-14T10:45:10.296Z,1396
2016-04-14T10:46:10.314Z,1164
2016-04-14T10:47:10.364Z,988
2016-04-14T10:48:10.367Z,920
2016-04-14T10:49:10.400Z,880
2016-04-14T10:50:10.419Z,928
2016-04-14T10:51:10.436Z,936
2016-04-14T10:52:10.471Z,1064
2016-04-14T10:53:10.488Z,1356
2016-04-14T10:54:10.507Z,1256
2016-04-14T10:55:10.525Z,1584
2016-04-14T10:56:10.560Z,2024
2016-04-14T10:57:10.703Z,2728
2016-04-14T10:58:10.643Z,3188
2016-04-14T10:59:10.771Z,2956
2016-04-14T11:00:10.648Z,2304
2016-04-14T11:01:10.682Z,1880
2016-04-14T11:02:10.701Z,1480
2016-04-14T11:03:10.594Z,1172
2016-04-14T11:04:10.738Z,804
2016-04-14T11:05:10.647Z,480
2016-04-14T11:06:10.805Z,348
2016-04-14T11:07:10.840Z,352
2016-04-14T11:08:10.920Z,548
2016-04-14T11:09:10.876Z,1196
2016-04-14T11:10:10.895Z,2104
2016-04-14T11:11:10.912Z,2568
2016-04-14T11:12:11.056Z,2956
2016-04-14T11:13:10.964Z,3308
2016-04-14T11:14:10.999Z,3420
2016-04-14T11:15:11.001Z,3144
2016-04-14T11:16:11.036Z,2620
2016-04-14T11:17:11.069Z,1996
2016-04-14T11:18:11.087Z,988
2016-04-14T11:19:11.044Z,424
2016-04-14T11:20:11.124Z,300
2016-04-14T11:21:11.158Z,388
2016-04-14T11:22:11.176Z,532
2016-04-14T11:23:11.194Z,516
2016-04-14T11:24:11.228Z,556
2016-04-14T11:25:11.247Z,748
2016-04-14T11:26:11.281Z,1092
2016-04-14T11:27:11.346Z,1396
2016-04-14T11:28:11.380Z,1224
2016-04-14T11:29:11.351Z,668
2016-04-14T11:30:11.385Z,404
2016-04-14T11:31:11.404Z,308
2016-04-14T11:32:11.485Z,336
2016-04-14T11:33:11.566Z,356
2016-04-14T11:34:11.474Z,356
2016-04-14T11:35:11.523Z,348
2016-04-14T11:36:11.526Z,452
2016-04-14T11:37:11.528Z,588
2016-04-14T11:38:11.562Z,740
2016-04-14T11:39:11.674Z,904
2016-04-14T11:40:11.724Z,1056
2016-04-14T11:41:11.727Z,1208
2016-04-14T11:42:11.792Z,1196
2016-04-14T11:43:11.779Z,1364
2016-04-14T11:44:11.781Z,1352
2016-04-14T11:45:11.800Z,1328
2016-04-14T11:46:11.833Z,1540
2016-04-14T11:47:11.789Z,2004
2016-04-14T11:48:11.808Z,2432
2016-04-14T11:49:11.841Z,2576
2016-04-14T11:50:11.849Z,2372
2016-04-14T11:51:11.883Z,1876
2016-04-14T11:52:11.902Z,1528
2016-04-14T11:53:12.013Z,1524
2016-04-14T11:54:11.891Z,1780
2016-04-14T11:55:11.957Z,1852
2016-04-14T11:56:12.021Z,2164
2016-04-14T11:57:12.274Z,2296
2016-04-14T11:58:12.042Z,2364
2016-04-14T11:59:12.061Z,2508
2016-04-14T12:00:12.204Z,2508
2016-04-14T12:01:12.114Z,2204
2016-04-14T12:02:12.148Z,2360
2016-04-14T12:03:12.228Z,3528
2016-04-14T12:04:12.184Z,4820
2016-04-14T12:05:12.202Z,5444
2016-04-14T12:06:12.236Z,5724
2016-04-14T12:07:12.255Z,5804
2016-04-14T12:08:12.288Z,5824
2016-04-14T12:09:12.291Z,5808
2016-04-14T12:10:12.340Z,5632
2016-04-14T12:11:12.359Z,5048
2016-04-14T12:12:12.377Z,4560
2016-04-14T12:13:12.396Z,3932
2016-04-14T12:14:12.413Z,3220
2016-04-14T12:15:12.447Z,2988
2016-04-14T12:16:12.482Z,3316
2016-04-14T12:17:12.500Z,2548
2016-04-14T12:18:12.519Z,2496
2016-04-14T12:19:12.537Z,1888
2016-04-14T12:20:12.571Z,2228
2016-04-14T12:21:12.588Z,2196
2016-04-14T12:22:12.623Z,1408
2016-04-14T12:23:12.626Z,1528
2016-04-14T12:24:12.659Z,1900
2016-04-14T12:25:12.693Z,2984
2016-04-14T12:26:12.759Z,3168
2016-04-14T12:27:12.870Z,3828
2016-04-14T12:28:12.749Z,3776
2016-04-14T12:29:12.782Z,2932
2016-04-14T12:30:12.817Z,2396
2016-04-14T12:31:12.850Z,2040
2016-04-14T12:32:12.853Z,3084
2016-04-14T12:33:12.887Z,2416
2016-04-14T12:34:12.905Z,2344
2016-04-14T12:35:12.955Z,2224
2016-04-14T12:36:12.972Z,2508
2016-04-14T12:37:12.991Z,2952
2016-04-14T12:38:13.009Z,2932
2016-04-14T12:39:13.309Z,2788
2016-04-14T12:40:13.062Z,2540
2016-04-14T12:41:13.096Z,3176
2016-04-14T12:42:13.114Z,3128
2016-04-14T12:43:13.335Z,2724
2016-04-14T12:44:13.150Z,2848
2016-04-14T12:45:13.169Z,2848
2016-04-14T12:46:13.203Z,2956
2016-04-14T12:47:13.222Z,3028
2016-04-14T12:48:13.240Z,2972
2016-04-14T12:49:13.477Z,2860
2016-04-14T12:50:13.338Z,2792
2016-04-14T12:51:13.326Z,3132
2016-04-14T12:52:13.359Z,3348
2016-04-14T12:53:13.378Z,3472
2016-04-14T12:54:13.396Z,3336
2016-04-14T12:55:13.430Z,3096
2016-04-14T12:56:13.465Z,2900
2016-04-14T12:57:13.483Z,2676
2016-04-14T12:58:13.501Z,3016
2016-04-14T12:59:13.520Z,3216
2016-04-14T13:00:13.553Z,3080
2016-04-14T13:01:13.571Z,3192
2016-04-14T13:02:13.589Z,3256
2016-04-14T13:03:13.608Z,3108
2016-04-14T13:04:13.642Z,3148
2016-04-14T13:05:13.675Z,3088
2016-04-14T13:06:13.695Z,2936
2016-04-14T13:07:13.712Z,2844
2016-04-14T13:08:13.747Z,2856
2016-04-14T13:09:13.767Z,2348
2016-04-14T13:10:13.802Z,1416
2016-04-14T13:11:14.081Z,1920
2016-04-14T13:12:13.678Z,1800
2016-04-14T13:13:13.867Z,2212
2016-04-14T13:14:13.901Z,3016
2016-04-14T13:15:13.920Z,2328
2016-04-14T13:16:13.938Z,1416
2016-04-14T13:17:13.972Z,1020
2016-04-14T13:18:13.255Z,1272
2016-04-14T13:19:14.008Z,2456
2016-04-14T13:20:14.042Z,2772
2016-04-14T13:21:14.060Z,2576
2016-04-14T13:22:14.095Z,2616
2016-04-14T13:23:14.113Z,2868
2016-04-14T13:24:14.131Z,2904
2016-04-14T13:25:14.166Z,2928
2016-04-14T13:26:14.184Z,2764
2016-04-14T13:27:14.202Z,2988
2016-04-14T13:28:14.236Z,3116
2016-04-14T13:29:14.254Z,2936
2016-04-14T13:30:14.288Z,2908
2016-04-14T13:31:14.321Z,2496
2016-04-14T13:32:14.341Z,2308
2016-04-14T13:33:14.265Z,2724
2016-04-14T13:34:14.393Z,2676
2016-04-14T13:35:14.661Z,2520
2016-04-14T13:36:14.429Z,2376
2016-04-14T13:37:14.682Z,2268
2016-04-14T13:38:14.684Z,2208
2016-04-14T13:39:14.515Z,2224
2016-04-14T13:40:14.534Z,2176
2016-04-14T13:41:14.552Z,2080
2016-04-14T13:42:14.587Z,2144
2016-04-14T13:43:14.604Z,2260
2016-04-14T13:44:14.623Z,2288
2016-04-14T13:45:14.656Z,2176
2016-04-14T13:46:14.690Z,2132
2016-04-14T13:47:14.724Z,2072
2016-04-14T13:48:15.008Z,2012
2016-04-14T13:49:14.761Z,2000
2016-04-14T13:50:14.795Z,2036
2016-04-14T13:51:14.814Z,2104
2016-04-14T13:52:14.831Z,2108
2016-04-14T13:53:14.866Z,2092